sensor_id;sensor_type;location;lat;lon;timestamp;P1;durP1;ratioP1;P2;durP2;ratioP2
72584;SDS011;60618;40.084;32.908;2023-03-07T00:01:37;35.70;;;14.88;;
72584;SDS011;60618;40.084;32.908;2023-03-07T00:04:04;30.85;;;13.05;;
72584;SDS011;60618;40.084;32.908;2023-03-07T00:06:31;32.95;;;14.85;;
72584;SDS011;60618;40.084;32.908;2023-03-07T00:08:58;35.60;;;14.57;;
72584;SDS011;60618;40.084;32.908;2023-03-07T00:11:27;36.57;;;14.77;;
72584;SDS011;60618;40.084;32.908;2023-03-07T00:13:54;34.28;;;15.50;;
72584;SDS011;60618;40.084;32.908;2023-03-07T00:16:21;34.85;;;14.95;;
72584;SDS011;60618;40.084;32.908;2023-03-07T00:18:49;28.40;;;12.45;;
72584;SDS011;60618;40.084;32.908;2023-03-07T00:21:18;33.00;;;13.18;;
72584;SDS011;60618;40.084;32.908;2023-03-07T00:23:46;41.33;;;18.03;;
72584;SDS011;60618;40.084;32.908;2023-03-07T00:26:15;38.33;;;16.95;;
72584;SDS011;60618;40.084;32.908;2023-03-07T00:28:47;38.45;;;15.57;;
72584;SDS011;60618;40.084;32.908;2023-03-07T00:31:15;40.63;;;17.75;;
72584;SDS011;60618;40.084;32.908;2023-03-07T00:33:43;53.40;;;24.35;;
72584;SDS011;60618;40.084;32.908;2023-03-07T00:36:12;43.97;;;19.60;;
72584;SDS011;60618;40.084;32.908;2023-03-07T00:38:41;45.22;;;19.77;;
72584;SDS011;60618;40.084;32.908;2023-03-07T00:41:09;42.33;;;18.50;;
72584;SDS011;60618;40.084;32.908;2023-03-07T00:43:40;40.40;;;16.83;;
72584;SDS011;60618;40.084;32.908;2023-03-07T00:46:08;40.38;;;17.08;;
72584;SDS011;60618;40.084;32.908;2023-03-07T00:48:36;42.67;;;17.37;;
72584;SDS011;60618;40.084;32.908;2023-03-07T00:51:04;38.25;;;16.75;;
72584;SDS011;60618;40.084;32.908;2023-03-07T00:53:33;41.22;;;17.95;;
72584;SDS011;60618;40.084;32.908;2023-03-07T00:56:01;42.67;;;17.80;;
72584;SDS011;60618;40.084;32.908;2023-03-07T00:58:32;44.03;;;18.08;;
72584;SDS011;60618;40.084;32.908;2023-03-07T01:01:01;44.77;;;16.93;;
72584;SDS011;60618;40.084;32.908;2023-03-07T01:03:29;36.63;;;15.23;;
72584;SDS011;60618;40.084;32.908;2023-03-07T01:06:01;42.40;;;17.67;;
72584;SDS011;60618;40.084;32.908;2023-03-07T01:08:29;43.40;;;17.83;;
72584;SDS011;60618;40.084;32.908;2023-03-07T01:10:57;41.45;;;17.33;;
72584;SDS011;60618;40.084;32.908;2023-03-07T01:13:25;49.67;;;19.33;;
72584;SDS011;60618;40.084;32.908;2023-03-07T01:15:52;36.88;;;15.20;;
72584;SDS011;60618;40.084;32.908;2023-03-07T01:18:19;38.08;;;14.63;;
72584;SDS011;60618;40.084;32.908;2023-03-07T01:20:46;38.78;;;16.58;;
72584;SDS011;60618;40.084;32.908;2023-03-07T01:23:13;37.92;;;16.10;;
72584;SDS011;60618;40.084;32.908;2023-03-07T01:25:40;35.97;;;15.47;;
72584;SDS011;60618;40.084;32.908;2023-03-07T01:28:08;32.65;;;14.32;;
72584;SDS011;60618;40.084;32.908;2023-03-07T01:30:39;37.78;;;14.30;;
72584;SDS011;60618;40.084;32.908;2023-03-07T01:33:06;33.35;;;13.55;;
72584;SDS011;60618;40.084;32.908;2023-03-07T01:35:38;31.58;;;12.82;;
72584;SDS011;60618;40.084;32.908;2023-03-07T01:38:06;34.40;;;13.13;;
72584;SDS011;60618;40.084;32.908;2023-03-07T01:40:32;34.92;;;13.77;;
72584;SDS011;60618;40.084;32.908;2023-03-07T01:48:16;32.10;;;14.32;;
72584;SDS011;60618;40.084;32.908;2023-03-07T01:50:43;35.60;;;14.77;;
72584;SDS011;60618;40.084;32.908;2023-03-07T01:53:10;35.65;;;14.98;;
72584;SDS011;60618;40.084;32.908;2023-03-07T01:55:37;39.10;;;16.63;;
72584;SDS011;60618;40.084;32.908;2023-03-07T01:58:13;42.30;;;16.80;;
72584;SDS011;60618;40.084;32.908;2023-03-07T02:00:40;40.97;;;17.08;;
72584;SDS011;60618;40.084;32.908;2023-03-07T02:05:38;37.08;;;15.85;;
72584;SDS011;60618;40.084;32.908;2023-03-07T02:08:13;39.92;;;16.17;;
72584;SDS011;60618;40.084;32.908;2023-03-07T02:10:41;36.53;;;16.05;;
72584;SDS011;60618;40.084;32.908;2023-03-07T02:13:09;41.38;;;17.38;;
72584;SDS011;60618;40.084;32.908;2023-03-07T02:15:36;40.00;;;16.37;;
72584;SDS011;60618;40.084;32.908;2023-03-07T02:18:03;37.55;;;17.50;;
72584;SDS011;60618;40.084;32.908;2023-03-07T02:20:53;43.05;;;17.98;;
72584;SDS011;60618;40.084;32.908;2023-03-07T02:23:43;35.53;;;14.43;;
72584;SDS011;60618;40.084;32.908;2023-03-07T02:26:25;34.78;;;14.85;;
72584;SDS011;60618;40.084;32.908;2023-03-07T02:28:58;36.10;;;15.87;;
72584;SDS011;60618;40.084;32.908;2023-03-07T02:31:26;38.17;;;15.20;;
72584;SDS011;60618;40.084;32.908;2023-03-07T02:33:53;33.00;;;14.07;;
72584;SDS011;60618;40.084;32.908;2023-03-07T02:36:22;32.75;;;14.55;;
72584;SDS011;60618;40.084;32.908;2023-03-07T02:38:51;31.02;;;13.10;;
72584;SDS011;60618;40.084;32.908;2023-03-07T02:41:21;31.23;;;12.93;;
72584;SDS011;60618;40.084;32.908;2023-03-07T02:43:52;30.60;;;12.52;;
72584;SDS011;60618;40.084;32.908;2023-03-07T02:46:19;28.17;;;11.50;;
72584;SDS011;60618;40.084;32.908;2023-03-07T02:48:46;25.50;;;11.20;;
72584;SDS011;60618;40.084;32.908;2023-03-07T02:51:13;30.63;;;12.32;;
72584;SDS011;60618;40.084;32.908;2023-03-07T02:53:40;36.87;;;14.07;;
72584;SDS011;60618;40.084;32.908;2023-03-07T02:56:07;37.03;;;15.07;;
72584;SDS011;60618;40.084;32.908;2023-03-07T02:58:34;37.22;;;14.13;;
72584;SDS011;60618;40.084;32.908;2023-03-07T03:01:01;32.33;;;13.80;;
72584;SDS011;60618;40.084;32.908;2023-03-07T03:03:28;34.92;;;14.90;;
72584;SDS011;60618;40.084;32.908;2023-03-07T03:05:55;31.77;;;14.40;;
72584;SDS011;60618;40.084;32.908;2023-03-07T03:08:21;34.65;;;14.13;;
72584;SDS011;60618;40.084;32.908;2023-03-07T03:10:52;35.00;;;14.95;;
72584;SDS011;60618;40.084;32.908;2023-03-07T03:13:19;32.95;;;14.55;;
72584;SDS011;60618;40.084;32.908;2023-03-07T03:15:47;37.17;;;15.15;;
72584;SDS011;60618;40.084;32.908;2023-03-07T03:18:14;34.03;;;14.03;;
72584;SDS011;60618;40.084;32.908;2023-03-07T03:20:41;33.10;;;14.05;;
72584;SDS011;60618;40.084;32.908;2023-03-07T03:23:08;30.13;;;11.38;;
72584;SDS011;60618;40.084;32.908;2023-03-07T03:25:35;32.03;;;13.75;;
72584;SDS011;60618;40.084;32.908;2023-03-07T03:28:05;31.00;;;13.73;;
72584;SDS011;60618;40.084;32.908;2023-03-07T03:30:32;30.33;;;13.17;;
72584;SDS011;60618;40.084;32.908;2023-03-07T03:32:59;24.98;;;11.45;;
72584;SDS011;60618;40.084;32.908;2023-03-07T03:35:25;30.00;;;12.25;;
72584;SDS011;60618;40.084;32.908;2023-03-07T03:37:52;26.23;;;11.88;;
72584;SDS011;60618;40.084;32.908;2023-03-07T03:40:19;30.67;;;13.30;;
72584;SDS011;60618;40.084;32.908;2023-03-07T03:42:46;30.10;;;13.50;;
72584;SDS011;60618;40.084;32.908;2023-03-07T03:45:13;31.42;;;13.32;;
72584;SDS011;60618;40.084;32.908;2023-03-07T03:47:40;31.92;;;13.10;;
72584;SDS011;60618;40.084;32.908;2023-03-07T03:50:07;38.83;;;13.50;;
72584;SDS011;60618;40.084;32.908;2023-03-07T03:52:35;30.17;;;12.73;;
72584;SDS011;60618;40.084;32.908;2023-03-07T03:55:03;24.40;;;10.97;;
72584;SDS011;60618;40.084;32.908;2023-03-07T03:57:30;31.13;;;11.48;;
72584;SDS011;60618;40.084;32.908;2023-03-07T03:59:57;33.63;;;13.38;;
72584;SDS011;60618;40.084;32.908;2023-03-07T04:02:24;32.00;;;12.90;;
72584;SDS011;60618;40.084;32.908;2023-03-07T04:04:51;28.73;;;12.88;;
72584;SDS011;60618;40.084;32.908;2023-03-07T04:07:18;28.00;;;12.77;;
72584;SDS011;60618;40.084;32.908;2023-03-07T04:09:45;34.97;;;14.75;;
72584;SDS011;60618;40.084;32.908;2023-03-07T04:12:12;32.10;;;14.02;;
72584;SDS011;60618;40.084;32.908;2023-03-07T04:14:38;33.67;;;14.80;;
72584;SDS011;60618;40.084;32.908;2023-03-07T04:17:05;31.77;;;13.13;;
72584;SDS011;60618;40.084;32.908;2023-03-07T04:19:32;32.17;;;13.70;;
72584;SDS011;60618;40.084;32.908;2023-03-07T04:21:59;27.00;;;11.90;;
72584;SDS011;60618;40.084;32.908;2023-03-07T04:24:26;35.13;;;14.30;;
72584;SDS011;60618;40.084;32.908;2023-03-07T04:26:53;33.13;;;13.57;;
72584;SDS011;60618;40.084;32.908;2023-03-07T04:29:20;27.73;;;11.93;;
72584;SDS011;60618;40.084;32.908;2023-03-07T04:31:47;31.80;;;14.00;;
72584;SDS011;60618;40.084;32.908;2023-03-07T04:34:13;31.63;;;14.05;;
72584;SDS011;60618;40.084;32.908;2023-03-07T04:36:40;35.22;;;14.95;;
72584;SDS011;60618;40.084;32.908;2023-03-07T04:39:07;32.13;;;14.98;;
72584;SDS011;60618;40.084;32.908;2023-03-07T04:41:34;37.13;;;16.17;;
72584;SDS011;60618;40.084;32.908;2023-03-07T04:44:01;29.10;;;12.30;;
72584;SDS011;60618;40.084;32.908;2023-03-07T04:46:28;27.80;;;12.20;;
72584;SDS011;60618;40.084;32.908;2023-03-07T04:48:55;32.58;;;14.13;;
72584;SDS011;60618;40.084;32.908;2023-03-07T04:51:22;33.22;;;13.60;;
72584;SDS011;60618;40.084;32.908;2023-03-07T04:53:49;30.92;;;13.73;;
72584;SDS011;60618;40.084;32.908;2023-03-07T04:56:16;35.40;;;14.00;;
72584;SDS011;60618;40.084;32.908;2023-03-07T04:58:43;32.38;;;14.35;;
72584;SDS011;60618;40.084;32.908;2023-03-07T05:01:10;29.08;;;13.48;;
72584;SDS011;60618;40.084;32.908;2023-03-07T05:03:37;35.17;;;14.32;;
72584;SDS011;60618;40.084;32.908;2023-03-07T05:06:05;36.28;;;15.40;;
72584;SDS011;60618;40.084;32.908;2023-03-07T05:08:34;36.40;;;16.47;;
72584;SDS011;60618;40.084;32.908;2023-03-07T05:11:01;38.42;;;16.60;;
72584;SDS011;60618;40.084;32.908;2023-03-07T05:13:28;42.90;;;17.38;;
72584;SDS011;60618;40.084;32.908;2023-03-07T05:15:56;38.95;;;16.30;;
72584;SDS011;60618;40.084;32.908;2023-03-07T05:18:24;40.80;;;16.00;;
72584;SDS011;60618;40.084;32.908;2023-03-07T05:20:52;40.80;;;15.83;;
72584;SDS011;60618;40.084;32.908;2023-03-07T05:23:19;34.60;;;15.48;;
72584;SDS011;60618;40.084;32.908;2023-03-07T05:25:46;37.65;;;16.13;;
72584;SDS011;60618;40.084;32.908;2023-03-07T05:28:13;34.78;;;16.48;;
72584;SDS011;60618;40.084;32.908;2023-03-07T05:30:40;39.78;;;17.60;;
72584;SDS011;60618;40.084;32.908;2023-03-07T05:33:07;44.30;;;18.80;;
72584;SDS011;60618;40.084;32.908;2023-03-07T05:35:34;42.80;;;18.52;;
72584;SDS011;60618;40.084;32.908;2023-03-07T05:38:01;41.55;;;18.25;;
72584;SDS011;60618;40.084;32.908;2023-03-07T05:40:27;43.53;;;19.23;;
72584;SDS011;60618;40.084;32.908;2023-03-07T05:42:54;41.05;;;18.33;;
72584;SDS011;60618;40.084;32.908;2023-03-07T05:45:21;40.93;;;18.77;;
72584;SDS011;60618;40.084;32.908;2023-03-07T05:47:48;54.13;;;24.33;;
72584;SDS011;60618;40.084;32.908;2023-03-07T05:50:15;52.75;;;22.38;;
72584;SDS011;60618;40.084;32.908;2023-03-07T05:52:42;47.53;;;20.63;;
72584;SDS011;60618;40.084;32.908;2023-03-07T05:55:09;44.25;;;19.38;;
72584;SDS011;60618;40.084;32.908;2023-03-07T05:57:36;38.67;;;17.43;;
72584;SDS011;60618;40.084;32.908;2023-03-07T06:00:04;40.60;;;18.55;;
72584;SDS011;60618;40.084;32.908;2023-03-07T06:02:31;43.83;;;19.10;;
72584;SDS011;60618;40.084;32.908;2023-03-07T06:04:58;45.10;;;20.52;;
72584;SDS011;60618;40.084;32.908;2023-03-07T06:07:25;39.92;;;18.27;;
72584;SDS011;60618;40.084;32.908;2023-03-07T06:09:51;38.60;;;18.23;;
72584;SDS011;60618;40.084;32.908;2023-03-07T06:12:18;44.53;;;19.25;;
72584;SDS011;60618;40.084;32.908;2023-03-07T06:14:45;39.00;;;17.95;;
72584;SDS011;60618;40.084;32.908;2023-03-07T06:17:12;38.08;;;17.95;;
72584;SDS011;60618;40.084;32.908;2023-03-07T06:19:39;50.08;;;23.13;;
72584;SDS011;60618;40.084;32.908;2023-03-07T06:22:06;48.87;;;22.20;;
72584;SDS011;60618;40.084;32.908;2023-03-07T06:24:33;52.17;;;22.85;;
72584;SDS011;60618;40.084;32.908;2023-03-07T06:27:00;49.75;;;21.75;;
72584;SDS011;60618;40.084;32.908;2023-03-07T06:29:27;50.38;;;21.52;;
72584;SDS011;60618;40.084;32.908;2023-03-07T06:31:56;42.78;;;19.20;;
72584;SDS011;60618;40.084;32.908;2023-03-07T06:34:23;54.63;;;25.17;;
72584;SDS011;60618;40.084;32.908;2023-03-07T06:36:51;39.42;;;19.35;;
72584;SDS011;60618;40.084;32.908;2023-03-07T06:39:17;42.58;;;20.45;;
72584;SDS011;60618;40.084;32.908;2023-03-07T06:41:45;41.47;;;18.42;;
72584;SDS011;60618;40.084;32.908;2023-03-07T06:44:16;40.75;;;18.80;;
72584;SDS011;60618;40.084;32.908;2023-03-07T06:46:43;36.83;;;17.83;;
72584;SDS011;60618;40.084;32.908;2023-03-07T06:49:11;40.15;;;18.20;;
72584;SDS011;60618;40.084;32.908;2023-03-07T06:51:38;39.90;;;18.75;;
72584;SDS011;60618;40.084;32.908;2023-03-07T06:54:04;43.38;;;20.27;;
72584;SDS011;60618;40.084;32.908;2023-03-07T06:56:32;36.00;;;18.23;;
72584;SDS011;60618;40.084;32.908;2023-03-07T06:58:59;41.77;;;19.07;;
72584;SDS011;60618;40.084;32.908;2023-03-07T07:01:26;38.53;;;17.80;;
72584;SDS011;60618;40.084;32.908;2023-03-07T07:03:53;44.90;;;21.40;;
72584;SDS011;60618;40.084;32.908;2023-03-07T07:06:21;43.78;;;21.40;;
72584;SDS011;60618;40.084;32.908;2023-03-07T07:08:48;43.30;;;20.55;;
72584;SDS011;60618;40.084;32.908;2023-03-07T07:11:18;40.33;;;19.90;;
72584;SDS011;60618;40.084;32.908;2023-03-07T07:13:45;37.90;;;19.95;;
72584;SDS011;60618;40.084;32.908;2023-03-07T07:16:12;38.40;;;18.85;;
72584;SDS011;60618;40.084;32.908;2023-03-07T07:18:39;36.95;;;20.63;;
72584;SDS011;60618;40.084;32.908;2023-03-07T07:21:06;34.28;;;17.42;;
72584;SDS011;60618;40.084;32.908;2023-03-07T07:23:33;38.33;;;18.67;;
72584;SDS011;60618;40.084;32.908;2023-03-07T07:26:00;25.35;;;14.05;;
72584;SDS011;60618;40.084;32.908;2023-03-07T07:28:27;27.73;;;13.82;;
72584;SDS011;60618;40.084;32.908;2023-03-07T07:30:54;27.27;;;13.82;;
72584;SDS011;60618;40.084;32.908;2023-03-07T07:33:21;27.40;;;13.43;;
72584;SDS011;60618;40.084;32.908;2023-03-07T07:35:48;30.57;;;14.10;;
72584;SDS011;60618;40.084;32.908;2023-03-07T07:38:14;30.70;;;14.52;;
72584;SDS011;60618;40.084;32.908;2023-03-07T07:40:41;30.25;;;13.85;;
72584;SDS011;60618;40.084;32.908;2023-03-07T07:43:15;27.65;;;14.13;;
72584;SDS011;60618;40.084;32.908;2023-03-07T07:45:43;29.85;;;15.40;;
72584;SDS011;60618;40.084;32.908;2023-03-07T07:48:10;26.13;;;14.07;;
72584;SDS011;60618;40.084;32.908;2023-03-07T07:50:36;30.58;;;14.60;;
72584;SDS011;60618;40.084;32.908;2023-03-07T07:53:03;32.80;;;14.98;;
72584;SDS011;60618;40.084;32.908;2023-03-07T07:55:30;33.92;;;16.40;;
72584;SDS011;60618;40.084;32.908;2023-03-07T07:57:57;32.65;;;15.77;;
72584;SDS011;60618;40.084;32.908;2023-03-07T08:00:24;30.90;;;15.53;;
72584;SDS011;60618;40.084;32.908;2023-03-07T08:02:51;30.65;;;15.45;;
72584;SDS011;60618;40.084;32.908;2023-03-07T08:05:19;28.00;;;14.43;;
72584;SDS011;60618;40.084;32.908;2023-03-07T08:07:47;30.10;;;15.57;;
72584;SDS011;60618;40.084;32.908;2023-03-07T08:10:14;30.27;;;15.23;;
72584;SDS011;60618;40.084;32.908;2023-03-07T08:12:48;29.30;;;14.60;;
72584;SDS011;60618;40.084;32.908;2023-03-07T08:15:15;31.70;;;15.50;;
72584;SDS011;60618;40.084;32.908;2023-03-07T08:17:43;19.77;;;9.60;;
72584;SDS011;60618;40.084;32.908;2023-03-07T08:20:10;18.48;;;10.13;;
72584;SDS011;60618;40.084;32.908;2023-03-07T08:22:37;16.83;;;9.27;;
72584;SDS011;60618;40.084;32.908;2023-03-07T08:25:04;18.87;;;9.67;;
72584;SDS011;60618;40.084;32.908;2023-03-07T08:27:32;21.40;;;10.90;;
72584;SDS011;60618;40.084;32.908;2023-03-07T08:30:00;19.38;;;9.93;;
72584;SDS011;60618;40.084;32.908;2023-03-07T08:32:27;17.65;;;8.93;;
72584;SDS011;60618;40.084;32.908;2023-03-07T08:34:54;19.60;;;10.52;;
72584;SDS011;60618;40.084;32.908;2023-03-07T08:37:21;18.93;;;9.97;;
72584;SDS011;60618;40.084;32.908;2023-03-07T08:39:47;17.83;;;8.38;;
72584;SDS011;60618;40.084;32.908;2023-03-07T08:42:14;19.40;;;9.90;;
72584;SDS011;60618;40.084;32.908;2023-03-07T08:44:41;19.98;;;10.55;;
72584;SDS011;60618;40.084;32.908;2023-03-07T08:47:08;19.50;;;9.75;;
72584;SDS011;60618;40.084;32.908;2023-03-07T08:49:35;15.87;;;9.00;;
72584;SDS011;60618;40.084;32.908;2023-03-07T08:52:02;14.85;;;8.52;;
72584;SDS011;60618;40.084;32.908;2023-03-07T08:54:29;14.48;;;7.47;;
72584;SDS011;60618;40.084;32.908;2023-03-07T08:56:56;13.20;;;6.90;;
72584;SDS011;60618;40.084;32.908;2023-03-07T08:59:24;13.32;;;7.63;;
72584;SDS011;60618;40.084;32.908;2023-03-07T09:01:50;15.40;;;7.30;;
72584;SDS011;60618;40.084;32.908;2023-03-07T09:04:17;12.43;;;6.75;;
72584;SDS011;60618;40.084;32.908;2023-03-07T09:06:44;14.90;;;7.20;;
72584;SDS011;60618;40.084;32.908;2023-03-07T09:09:11;13.85;;;8.05;;
72584;SDS011;60618;40.084;32.908;2023-03-07T09:11:38;13.02;;;7.70;;
72584;SDS011;60618;40.084;32.908;2023-03-07T09:14:04;17.77;;;7.40;;
72584;SDS011;60618;40.084;32.908;2023-03-07T09:16:31;14.15;;;7.60;;
72584;SDS011;60618;40.084;32.908;2023-03-07T09:18:58;17.48;;;8.00;;
72584;SDS011;60618;40.084;32.908;2023-03-07T09:21:25;15.45;;;7.35;;
72584;SDS011;60618;40.084;32.908;2023-03-07T09:23:52;13.23;;;6.57;;
72584;SDS011;60618;40.084;32.908;2023-03-07T09:26:19;11.03;;;6.20;;
72584;SDS011;60618;40.084;32.908;2023-03-07T09:28:46;11.10;;;6.75;;
72584;SDS011;60618;40.084;32.908;2023-03-07T09:31:13;9.90;;;6.05;;
72584;SDS011;60618;40.084;32.908;2023-03-07T09:33:41;11.68;;;6.70;;
72584;SDS011;60618;40.084;32.908;2023-03-07T09:36:11;12.40;;;6.30;;
72584;SDS011;60618;40.084;32.908;2023-03-07T09:38:38;14.27;;;6.67;;
72584;SDS011;60618;40.084;32.908;2023-03-07T09:49:31;10.60;;;5.95;;
72584;SDS011;60618;40.084;32.908;2023-03-07T09:52:06;12.00;;;6.30;;
72584;SDS011;60618;40.084;32.908;2023-03-07T09:54:40;11.38;;;6.50;;
72584;SDS011;60618;40.084;32.908;2023-03-07T09:57:32;13.18;;;6.63;;
72584;SDS011;60618;40.084;32.908;2023-03-07T10:03:37;12.90;;;7.07;;
72584;SDS011;60618;40.084;32.908;2023-03-07T10:05:49;11.93;;;6.80;;
72584;SDS011;60618;40.084;32.908;2023-03-07T10:08:21;14.07;;;7.60;;
72584;SDS011;60618;40.084;32.908;2023-03-07T10:11:12;13.63;;;7.80;;
72584;SDS011;60618;40.084;32.908;2023-03-07T10:16:49;11.82;;;6.57;;
72584;SDS011;60618;40.084;32.908;2023-03-07T10:19:29;14.03;;;7.17;;
72584;SDS011;60618;40.084;32.908;2023-03-07T10:27:29;13.07;;;7.80;;
72584;SDS011;60618;40.084;32.908;2023-03-07T10:29:58;14.38;;;7.30;;
72584;SDS011;60618;40.084;32.908;2023-03-07T10:32:36;10.50;;;6.27;;
72584;SDS011;60618;40.084;32.908;2023-03-07T10:40:22;14.07;;;7.50;;
72584;SDS011;60618;40.084;32.908;2023-03-07T10:42:52;13.63;;;7.55;;
72584;SDS011;60618;40.084;32.908;2023-03-07T10:45:20;16.50;;;7.60;;
72584;SDS011;60618;40.084;32.908;2023-03-07T10:47:48;14.38;;;7.70;;
72584;SDS011;60618;40.084;32.908;2023-03-07T10:52:57;14.35;;;7.97;;
72584;SDS011;60618;40.084;32.908;2023-03-07T10:55:40;14.70;;;8.10;;
72584;SDS011;60618;40.084;32.908;2023-03-07T11:00:43;13.98;;;7.22;;
72584;SDS011;60618;40.084;32.908;2023-03-07T11:06:00;12.95;;;7.20;;
72584;SDS011;60618;40.084;32.908;2023-03-07T11:11:02;11.77;;;6.47;;
72584;SDS011;60618;40.084;32.908;2023-03-07T11:13:30;12.18;;;6.82;;
72584;SDS011;60618;40.084;32.908;2023-03-07T11:16:14;11.27;;;7.22;;
72584;SDS011;60618;40.084;32.908;2023-03-07T11:18:45;10.73;;;6.57;;
72584;SDS011;60618;40.084;32.908;2023-03-07T11:21:26;10.02;;;5.93;;
72584;SDS011;60618;40.084;32.908;2023-03-07T11:24:02;14.27;;;6.80;;
72584;SDS011;60618;40.084;32.908;2023-03-07T11:26:33;10.63;;;6.13;;
72584;SDS011;60618;40.084;32.908;2023-03-07T11:29:06;9.48;;;5.75;;
72584;SDS011;60618;40.084;32.908;2023-03-07T11:34:29;10.32;;;5.60;;
72584;SDS011;60618;40.084;32.908;2023-03-07T11:40:16;7.57;;;4.43;;
72584;SDS011;60618;40.084;32.908;2023-03-07T11:43:05;7.78;;;4.13;;
72584;SDS011;60618;40.084;32.908;2023-03-07T11:48:25;6.68;;;3.90;;
72584;SDS011;60618;40.084;32.908;2023-03-07T11:54:19;6.72;;;4.10;;
72584;SDS011;60618;40.084;32.908;2023-03-07T11:56:48;8.10;;;4.05;;
72584;SDS011;60618;40.084;32.908;2023-03-07T12:02:54;5.72;;;3.30;;
72584;SDS011;60618;40.084;32.908;2023-03-07T12:08:16;7.35;;;3.70;;
72584;SDS011;60618;40.084;32.908;2023-03-07T12:10:58;8.00;;;3.75;;
72584;SDS011;60618;40.084;32.908;2023-03-07T12:13:45;6.45;;;3.67;;
72584;SDS011;60618;40.084;32.908;2023-03-07T12:27:49;6.68;;;3.67;;
72584;SDS011;60618;40.084;32.908;2023-03-07T12:30:41;7.38;;;3.80;;
72584;SDS011;60618;40.084;32.908;2023-03-07T12:33:19;5.60;;;2.97;;
72584;SDS011;60618;40.084;32.908;2023-03-07T12:35:59;6.00;;;3.03;;
72584;SDS011;60618;40.084;32.908;2023-03-07T12:41:23;5.90;;;3.28;;
72584;SDS011;60618;40.084;32.908;2023-03-07T12:44:04;6.25;;;3.30;;
72584;SDS011;60618;40.084;32.908;2023-03-07T12:46:39;6.73;;;3.20;;
72584;SDS011;60618;40.084;32.908;2023-03-07T12:49:23;6.53;;;3.53;;
72584;SDS011;60618;40.084;32.908;2023-03-07T12:52:15;6.68;;;3.50;;
72584;SDS011;60618;40.084;32.908;2023-03-07T12:55:17;6.60;;;3.17;;
72584;SDS011;60618;40.084;32.908;2023-03-07T12:57:57;6.60;;;2.85;;
72584;SDS011;60618;40.084;32.908;2023-03-07T13:00:38;5.10;;;2.50;;
72584;SDS011;60618;40.084;32.908;2023-03-07T13:03:10;5.45;;;2.75;;
72584;SDS011;60618;40.084;32.908;2023-03-07T13:05:49;5.60;;;2.88;;
72584;SDS011;60618;40.084;32.908;2023-03-07T13:08:18;7.10;;;3.15;;
72584;SDS011;60618;40.084;32.908;2023-03-07T13:10:48;9.93;;;3.70;;
72584;SDS011;60618;40.084;32.908;2023-03-07T13:13:46;6.47;;;3.23;;
72584;SDS011;60618;40.084;32.908;2023-03-07T13:16:14;6.18;;;3.55;;
72584;SDS011;60618;40.084;32.908;2023-03-07T13:22:02;7.38;;;3.10;;
72584;SDS011;60618;40.084;32.908;2023-03-07T13:37:54;5.30;;;3.00;;
72584;SDS011;60618;40.084;32.908;2023-03-07T13:45:48;5.80;;;3.20;;
72584;SDS011;60618;40.084;32.908;2023-03-07T13:53:20;7.37;;;3.30;;
72584;SDS011;60618;40.084;32.908;2023-03-07T13:55:49;7.32;;;2.80;;
72584;SDS011;60618;40.084;32.908;2023-03-07T13:58:35;6.55;;;3.35;;
72584;SDS011;60618;40.084;32.908;2023-03-07T14:01:11;7.10;;;3.20;;
72584;SDS011;60618;40.084;32.908;2023-03-07T14:06:20;6.90;;;3.30;;
72584;SDS011;60618;40.084;32.908;2023-03-07T14:08:53;7.85;;;4.03;;
72584;SDS011;60618;40.084;32.908;2023-03-07T14:11:22;9.73;;;3.90;;
72584;SDS011;60618;40.084;32.908;2023-03-07T14:16:49;7.05;;;3.00;;
72584;SDS011;60618;40.084;32.908;2023-03-07T14:19:36;6.33;;;3.60;;
72584;SDS011;60618;40.084;32.908;2023-03-07T14:22:22;6.68;;;3.40;;
72584;SDS011;60618;40.084;32.908;2023-03-07T14:27:55;8.52;;;3.53;;
72584;SDS011;60618;40.084;32.908;2023-03-07T14:30:25;8.30;;;3.60;;
72584;SDS011;60618;40.084;32.908;2023-03-07T14:32:55;6.73;;;3.30;;
72584;SDS011;60618;40.084;32.908;2023-03-07T14:35:36;7.88;;;3.33;;
72584;SDS011;60618;40.084;32.908;2023-03-07T14:38:07;7.50;;;3.30;;
72584;SDS011;60618;40.084;32.908;2023-03-07T14:40:55;9.52;;;3.63;;
72584;SDS011;60618;40.084;32.908;2023-03-07T14:49:24;7.38;;;3.50;;
72584;SDS011;60618;40.084;32.908;2023-03-07T14:52:13;7.03;;;3.20;;
72584;SDS011;60618;40.084;32.908;2023-03-07T14:54:55;8.35;;;3.60;;
72584;SDS011;60618;40.084;32.908;2023-03-07T14:57:34;6.20;;;3.30;;
72584;SDS011;60618;40.084;32.908;2023-03-07T15:02:46;6.82;;;3.20;;
72584;SDS011;60618;40.084;32.908;2023-03-07T15:05:15;5.30;;;2.95;;
72584;SDS011;60618;40.084;32.908;2023-03-07T15:08:02;4.57;;;2.38;;
72584;SDS011;60618;40.084;32.908;2023-03-07T15:10:41;5.55;;;2.83;;
72584;SDS011;60618;40.084;32.908;2023-03-07T15:13:26;5.17;;;2.70;;
72584;SDS011;60618;40.084;32.908;2023-03-07T15:16:01;5.57;;;2.25;;
72584;SDS011;60618;40.084;32.908;2023-03-07T15:18:34;6.75;;;3.20;;
72584;SDS011;60618;40.084;32.908;2023-03-07T15:21:06;6.07;;;2.95;;
72584;SDS011;60618;40.084;32.908;2023-03-07T15:23:40;8.15;;;3.40;;
72584;SDS011;60618;40.084;32.908;2023-03-07T15:26:12;6.67;;;2.90;;
72584;SDS011;60618;40.084;32.908;2023-03-07T15:28:41;8.32;;;3.50;;
72584;SDS011;60618;40.084;32.908;2023-03-07T15:31:08;5.65;;;2.88;;
72584;SDS011;60618;40.084;32.908;2023-03-07T15:33:35;5.40;;;2.80;;
72584;SDS011;60618;40.084;32.908;2023-03-07T15:38:40;7.17;;;3.20;;
72584;SDS011;60618;40.084;32.908;2023-03-07T15:41:27;7.22;;;3.17;;
72584;SDS011;60618;40.084;32.908;2023-03-07T15:44:04;5.82;;;2.75;;
72584;SDS011;60618;40.084;32.908;2023-03-07T15:46:53;6.80;;;3.00;;
72584;SDS011;60618;40.084;32.908;2023-03-07T15:49:34;8.40;;;2.78;;
72584;SDS011;60618;40.084;32.908;2023-03-07T15:52:23;6.30;;;2.90;;
72584;SDS011;60618;40.084;32.908;2023-03-07T15:55:18;7.93;;;3.38;;
72584;SDS011;60618;40.084;32.908;2023-03-07T15:57:50;6.85;;;3.00;;
72584;SDS011;60618;40.084;32.908;2023-03-07T16:00:26;6.82;;;3.22;;
72584;SDS011;60618;40.084;32.908;2023-03-07T16:05:48;7.67;;;3.67;;
72584;SDS011;60618;40.084;32.908;2023-03-07T16:08:15;7.95;;;3.70;;
72584;SDS011;60618;40.084;32.908;2023-03-07T16:10:45;6.25;;;3.55;;
72584;SDS011;60618;40.084;32.908;2023-03-07T16:13:21;7.90;;;3.50;;
72584;SDS011;60618;40.084;32.908;2023-03-07T16:16:02;7.88;;;3.95;;
72584;SDS011;60618;40.084;32.908;2023-03-07T16:18:38;6.63;;;3.50;;
72584;SDS011;60618;40.084;32.908;2023-03-07T16:21:11;8.93;;;3.22;;
72584;SDS011;60618;40.084;32.908;2023-03-07T16:23:40;6.95;;;3.53;;
72584;SDS011;60618;40.084;32.908;2023-03-07T16:26:11;7.75;;;3.95;;
72584;SDS011;60618;40.084;32.908;2023-03-07T16:28:41;8.60;;;4.45;;
72584;SDS011;60618;40.084;32.908;2023-03-07T16:31:10;7.57;;;4.03;;
72584;SDS011;60618;40.084;32.908;2023-03-07T16:33:38;7.47;;;3.85;;
72584;SDS011;60618;40.084;32.908;2023-03-07T16:36:07;10.25;;;4.78;;
72584;SDS011;60618;40.084;32.908;2023-03-07T16:38:35;8.85;;;4.53;;
72584;SDS011;60618;40.084;32.908;2023-03-07T16:41:02;8.25;;;4.28;;
72584;SDS011;60618;40.084;32.908;2023-03-07T16:43:36;11.87;;;4.90;;